Time;durP1;ratioP1;P1;durP2;ratioP2;P2;SDS_P1;SDS_P2;PMS_P1;PMS_P2;Temp;Humidity;BMP_temperature;BMP_pressure;BME280_temperature;BME280_humidity;BME280_pressure;Samples;Min_cycle;Max_cycle;Signal;HPM_P1;HPM_P2
2022/08/18 00:00:25;;;;;;;11.55;9.15;;;;;;;29.07;51.91;100818.18;1739221;81;21566;-50
2022/08/18 00:02:53;;;;;;;9.50;8.70;;;;;;;29.07;52.20;100824.03;1698072;84;21066;-51
2022/08/18 00:05:20;;;;;;;9.13;8.40;;;;;;;29.06;52.49;100826.38;1698004;83;21050;-52
2022/08/18 00:07:48;;;;;;;9.85;8.90;;;;;;;29.06;52.90;100825.04;1698093;84;21070;-51
2022/08/18 00:10:14;;;;;;;10.08;9.08;;;;;;;29.05;53.21;100826.02;1698334;83;21080;-51
2022/08/18 00:15:12;;;;;;;11.40;9.68;;;;;;;29.05;53.70;100830.88;1653916;86;21097;-53
2022/08/18 00:17:39;;;;;;;10.53;9.63;;;;;;;29.05;54.07;100835.39;1705426;83;21109;-51
2022/08/18 00:20:10;;;;;;;10.20;9.40;;;;;;;29.05;54.23;100838.07;1707385;83;21065;-51
2022/08/18 00:22:38;;;;;;;10.40;9.53;;;;;;;29.04;54.45;100840.42;1664779;86;21506;-51
2022/08/18 00:25:08;;;;;;;9.98;9.10;;;;;;;29.03;54.66;100834.70;1683378;84;21031;-56
2022/08/18 00:27:37;;;;;;;10.33;9.33;;;;;;;29.02;54.83;100835.70;1683164;84;21008;-50
2022/08/18 00:30:07;;;;;;;10.45;9.15;;;;;;;29.02;54.90;100844.56;1682960;84;21789;-51
2022/08/18 00:32:43;;;;;;;9.85;9.05;;;;;;;29.02;55.04;100841.06;1682704;84;21551;-50
2022/08/18 00:35:20;;;;;;;10.90;9.85;;;;;;;29.02;55.23;100841.06;1681959;85;21460;-52
2022/08/18 00:37:47;;;;;;;11.40;10.23;;;;;;;29.01;55.32;100844.23;1669473;86;21067;-52
2022/08/18 00:40:19;;;;;;;12.03;10.78;;;;;;;29.01;55.40;100846.91;1700646;84;21043;-50
2022/08/18 00:42:48;;;;;;;;;;;;;;;29.01;55.41;100847.41;1705692;84;21023;-57
2022/08/18 00:45:19;;;;;;;10.85;9.85;;;;;;;29.02;55.31;100851.78;1706484;83;20142;-49
2022/08/18 00:47:46;;;;;;;11.03;9.93;;;;;;;29.01;55.25;100852.76;1703245;83;21011;-53
2022/08/18 00:50:21;;;;;;;10.48;9.58;;;;;;;29.00;55.10;100855.11;1702952;83;21507;-54
2022/08/18 00:52:57;;;;;;;11.35;10.25;;;;;;;28.98;55.04;100857.42;1640744;87;21070;-52
2022/08/18 00:55:26;;;;;;;10.15;9.25;;;;;;;28.97;54.78;100850.36;1637300;87;21619;-54
2022/08/18 00:57:55;;;;;;;10.65;9.60;;;;;;;28.95;54.59;100849.67;1604717;88;21586;-52
2022/08/18 01:00:21;;;;;;;10.08;9.18;;;;;;;28.94;54.54;100845.80;1609917;88;21570;-53
2022/08/18 01:02:52;;;;;;;10.45;9.55;;;;;;;28.91;54.54;100846.94;1590729;89;21630;-53
2022/08/18 01:05:44;;;;;;;11.12;10.13;;;;;;;28.87;54.59;100845.55;1588743;90;21071;-55
2022/08/18 01:08:13;;;;;;;10.43;9.40;;;;;;;28.84;54.65;100849.88;1626120;87;21055;-55
2022/08/18 01:10:40;;;;;;;10.88;9.85;;;;;;;28.81;54.73;100838.62;1571544;90;21059;-50
2022/08/18 01:13:07;;;;;;;10.82;9.93;;;;;;;28.80;54.82;100837.78;1611942;87;21055;-50
2022/08/18 01:15:34;;;;;;;12.85;10.25;;;;;;;28.79;54.90;100840.61;1612912;88;21055;-50
2022/08/18 01:24:04;;;;;;;11.05;9.93;;;;;;;28.76;55.23;100839.06;1612719;88;21116;-49
2022/08/18 01:26:31;;;;;;;13.05;10.63;;;;;;;28.74;55.38;100829.48;1590824;88;21075;-50
2022/08/18 01:29:10;;;;;;;13.65;10.80;;;;;;;28.73;55.48;100827.30;1613140;88;21055;-51
2022/08/18 01:31:39;;;;;;;11.97;10.78;;;;;;;28.72;55.46;100833.66;1599143;89;21146;-51
2022/08/18 01:34:09;;;;;;;12.43;11.12;;;;;;;28.72;55.50;100836.34;1549813;91;21090;-52
2022/08/18 01:36:37;;;;;;;12.63;11.33;;;;;;;28.72;55.52;100833.66;1563565;90;21085;-52
2022/08/18 01:39:10;;;;;;;11.68;10.50;;;;;;;28.72;55.49;100832.80;1571803;90;21163;-50
2022/08/18 01:41:37;;;;;;;11.28;10.28;;;;;;;28.71;55.43;100831.95;1574004;90;21077;-52
2022/08/18 01:44:04;;;;;;;12.05;10.85;;;;;;;28.70;55.40;100832.97;1580250;90;21130;-50
2022/08/18 01:46:33;;;;;;;13.05;11.22;;;;;;;28.69;55.44;100831.26;1573892;90;21058;-51
2022/08/18 01:49:00;;;;;;;12.60;11.33;;;;;;;28.69;55.42;100832.59;1570882;91;21151;-55
2022/08/18 01:51:28;;;;;;;11.45;10.28;;;;;;;28.69;55.38;100833.09;1564875;90;21077;-49
2022/08/18 01:53:57;;;;;;;13.10;11.65;;;;;;;28.68;55.37;100830.08;1572044;90;21065;-49
2022/08/18 01:56:28;;;;;;;12.07;10.98;;;;;;;28.66;55.42;100831.57;1561856;91;21086;-51
2022/08/18 01:58:54;;;;;;;11.20;10.13;;;;;;;28.66;55.51;100836.08;1555783;91;21067;-50
2022/08/18 02:01:26;;;;;;;11.15;10.05;;;;;;;28.64;55.65;100836.23;1568402;90;21079;-49
2022/08/18 02:03:57;;;;;;;10.00;9.10;;;;;;;28.64;55.92;100827.34;1561730;91;21565;-51
2022/08/18 02:06:24;;;;;;;9.98;8.98;;;;;;;28.63;56.23;100830.52;1554871;91;21132;-50
2022/08/18 02:08:51;;;;;;;9.10;8.28;;;;;;;28.60;56.54;100826.80;1562136;90;21129;-48
2022/08/18 02:11:18;;;;;;;9.00;8.20;;;;;;;28.59;56.69;100827.78;1563084;91;21125;-51
2022/08/18 02:13:46;;;;;;;10.45;9.40;;;;;;;28.58;56.70;100819.91;1564403;91;21626;-49
2022/08/18 02:16:13;;;;;;;8.93;8.18;;;;;;;28.56;56.77;100828.09;1564637;91;21084;-53
2022/08/18 02:18:41;;;;;;;9.00;8.10;;;;;;;28.57;56.78;100827.57;1565909;91;21172;-52
2022/08/18 02:21:13;;;;;;;9.35;8.58;;;;;;;28.56;56.77;100822.73;1557629;91;21550;-52
2022/08/18 02:23:41;;;;;;;9.65;8.45;;;;;;;28.57;56.73;100823.06;1562320;91;21562;-50
2022/08/18 02:30:10;;;;;;;9.73;8.93;;;;;;;28.60;56.58;100818.77;1572671;85;21039;-51
2022/08/18 02:32:38;;;;;;;9.28;8.48;;;;;;;28.59;56.41;100823.77;1693523;84;21065;-50
2022/08/18 02:35:06;;;;;;;9.93;9.13;;;;;;;28.57;56.41;100816.37;1697721;84;21042;-49
2022/08/18 02:37:33;;;;;;;9.63;8.75;;;;;;;28.57;56.45;100827.08;1698917;82;21046;-51
2022/08/18 02:40:00;;;;;;;10.30;9.38;;;;;;;28.57;56.58;100826.23;1695058;84;21038;-54
2022/08/18 02:42:27;;;;;;;9.85;8.88;;;;;;;28.56;56.60;100825.41;1701087;84;21030;-50
2022/08/18 02:44:55;;;;;;;10.03;9.23;;;;;;;28.55;56.57;100823.67;1698961;84;21034;-50
2022/08/18 02:47:22;;;;;;;9.95;8.83;;;;;;;28.52;56.58;100819.94;1697810;83;21511;-50
2022/08/18 02:49:49;;;;;;;10.18;9.20;;;;;;;28.50;56.55;100825.94;1697967;84;21506;-52
2022/08/18 02:52:17;;;;;;;10.50;9.50;;;;;;;28.49;56.57;100826.09;1697555;83;21022;-53
2022/08/18 02:54:46;;;;;;;10.82;9.83;;;;;;;28.47;56.61;100832.94;1697923;83;20999;-53
2022/08/18 02:57:13;;;;;;;10.53;9.63;;;;;;;28.46;56.54;100833.91;1695630;84;21038;-51
2022/08/18 02:59:41;;;;;;;10.08;9.30;;;;;;;28.45;56.42;100830.90;1700257;84;20998;-49
2022/08/18 03:02:08;;;;;;;9.85;8.95;;;;;;;28.42;56.28;100836.53;1697994;84;21043;-55
2022/08/18 03:04:36;;;;;;;10.03;8.75;;;;;;;28.39;56.27;100842.19;1697296;83;21515;-52
2022/08/18 03:07:05;;;;;;;10.40;9.40;;;;;;;28.37;56.37;100840.16;1698192;83;21034;-53
2022/08/18 03:09:33;;;;;;;10.18;9.18;;;;;;;28.35;56.66;100843.47;1697399;83;21014;-50
2022/08/18 03:12:00;;;;;;;10.30;9.05;;;;;;;28.34;57.02;100843.11;1697641;84;21053;-52
2022/08/18 03:14:27;;;;;;;10.95;9.28;;;;;;;28.34;57.33;100843.63;1699746;83;21050;-52
2022/08/18 03:16:55;;;;;;;10.20;9.20;;;;;;;28.32;57.38;100842.89;1736515;81;20987;-50
2022/08/18 03:19:24;;;;;;;10.60;9.65;;;;;;;28.31;57.45;100848.77;1735277;81;21022;-50
2022/08/18 03:21:51;;;;;;;10.40;9.45;;;;;;;28.28;57.52;100846.36;1740096;81;21487;-51
2022/08/18 03:24:18;;;;;;;10.78;9.78;;;;;;;28.28;57.59;100853.53;1734847;81;21043;-52
2022/08/18 03:26:46;;;;;;;11.05;10.15;;;;;;;28.27;57.65;100855.88;1735152;82;21006;-57
2022/08/18 03:29:13;;;;;;;11.28;10.32;;;;;;;28.25;57.81;100858.70;1735180;81;21062;-53
2022/08/18 03:31:41;;;;;;;10.90;9.83;;;;;;;28.26;57.89;100863.05;1732628;81;21078;-50
2022/08/18 03:34:08;;;;;;;10.80;9.80;;;;;;;28.27;57.88;100864.77;1699819;82;21038;-50
2022/08/18 03:36:35;;;;;;;11.38;10.28;;;;;;;28.29;57.86;100862.78;1732109;81;21492;-51
2022/08/18 03:39:08;;;;;;;11.12;10.13;;;;;;;28.31;57.96;100863.97;1730818;81;21555;-50
2022/08/18 03:41:40;;;;;;;9.93;9.05;;;;;;;28.32;57.89;100861.14;1731119;81;20999;-50
2022/08/18 03:44:08;;;;;;;10.18;9.18;;;;;;;28.32;57.91;100867.83;1677746;84;21521;-53
2022/08/18 03:46:35;;;;;;;11.08;9.80;;;;;;;28.34;57.85;100860.50;1698248;84;21078;-50
2022/08/18 03:49:03;;;;;;;11.05;10.05;;;;;;;28.35;57.87;100865.37;1688451;84;21007;-50
2022/08/18 03:51:31;;;;;;;9.58;8.63;;;;;;;28.37;57.88;100864.73;1734822;81;21026;-52
2022/08/18 03:53:59;;;;;;;10.98;9.80;;;;;;;28.39;57.83;100870.78;1735017;81;21062;-52
2022/08/18 03:56:37;;;;;;;11.40;10.40;;;;;;;28.41;57.73;100868.31;1732339;81;21042;-53
2022/08/18 03:59:06;;;;;;;11.20;10.30;;;;;;;28.42;57.64;100869.98;1732033;82;21107;-52
2022/08/18 04:01:38;;;;;;;10.95;9.88;;;;;;;28.42;57.53;100865.97;1732650;82;21069;-52
2022/08/18 04:04:08;;;;;;;11.70;10.72;;;;;;;28.44;57.44;100868.53;1712861;82;21076;-49
2022/08/18 04:06:41;;;;;;;10.32;9.35;;;;;;;28.43;57.35;100863.66;1725657;82;21027;-49
2022/08/18 04:09:11;;;;;;;11.33;10.32;;;;;;;28.45;57.29;100863.02;1621050;86;21749;-52
2022/08/18 04:11:41;;;;;;;11.60;10.08;;;;;;;28.45;57.21;100864.36;1619329;86;21042;-52
2022/08/18 04:14:14;;;;;;;12.00;10.80;;;;;;;28.48;57.06;100872.60;1620494;88;21498;-51
2022/08/18 04:16:41;;;;;;;10.45;9.55;;;;;;;28.48;56.94;100870.75;1622109;86;21097;-50
2022/08/18 04:19:08;;;;;;;10.48;9.48;;;;;;;28.49;56.89;100867.09;1619131;86;21050;-52
2022/08/18 04:21:38;;;;;;;11.95;10.75;;;;;;;28.46;56.88;100875.40;1619438;86;21547;-52
2022/08/18 04:24:06;;;;;;;12.55;10.35;;;;;;;28.44;56.84;100872.02;1619687;86;21134;-52
2022/08/18 04:26:36;;;;;;;11.45;10.50;;;;;;;28.42;56.86;100871.33;1619402;86;21038;-53
2022/08/18 04:29:05;;;;;;;11.10;10.00;;;;;;;28.41;56.91;100881.70;1618932;88;21100;-51
2022/08/18 04:31:33;;;;;;;11.20;10.30;;;;;;;28.39;56.92;100881.00;1619886;86;21641;-53
2022/08/18 04:34:00;;;;;;;11.90;10.70;;;;;;;28.38;57.01;100881.97;1620092;86;21034;-56
2022/08/18 04:36:28;;;;;;;11.20;10.30;;;;;;;28.36;57.10;100882.61;1619844;86;21074;-50
2022/08/18 04:38:55;;;;;;;11.33;10.32;;;;;;;28.34;57.23;100889.94;1619776;86;21566;-51
2022/08/18 04:41:26;;;;;;;11.63;10.45;;;;;;;28.33;57.32;100893.63;1621973;86;21567;-49
2022/08/18 04:43:51;;;;;;;11.28;10.18;;;;;;;28.32;57.48;100895.94;1620564;87;21025;-50
2022/08/18 04:46:18;;;;;;;10.93;10.03;;;;;;;28.31;57.74;100900.95;1612743;87;21032;-51
2022/08/18 04:48:44;;;;;;;11.65;10.55;;;;;;;28.32;57.94;100895.08;1700621;84;21064;-49
2022/08/18 04:51:16;;;;;;;10.72;9.63;;;;;;;28.33;58.06;100897.64;1699792;84;21019;-48
2022/08/18 04:53:45;;;;;;;;;;;;;;;28.34;57.92;100902.50;1706695;84;21504;-51
2022/08/18 04:56:25;;;;;;;9.83;8.80;;;;;;;28.34;57.74;100903.32;1712158;82;20141;-50
2022/08/18 04:58:54;;;;;;;10.05;9.08;;;;;;;28.34;57.46;100903.32;1716105;84;21058;-54
2022/08/18 05:01:24;;;;;;;10.10;9.30;;;;;;;28.35;57.20;100905.03;1651291;86;21048;-54
2022/08/18 05:03:52;;;;;;;10.18;9.18;;;;;;;28.37;57.11;100904.39;1646944;86;21519;-53
2022/08/18 05:06:23;;;;;;;10.53;9.53;;;;;;;28.40;57.04;100908.09;1670632;85;21023;-52
2022/08/18 05:08:49;;;;;;;11.25;10.15;;;;;;;28.44;56.92;100916.71;1679845;84;21515;-51
2022/08/18 05:11:17;;;;;;;10.48;9.58;;;;;;;28.45;56.87;100917.89;1714049;82;21003;-50
2022/08/18 05:13:44;;;;;;;11.15;10.05;;;;;;;28.48;56.69;100921.61;1707968;82;21518;-53
2022/08/18 05:16:11;;;;;;;10.63;9.73;;;;;;;28.48;56.55;100924.80;1713944;82;20986;-50
2022/08/18 05:18:39;;;;;;;11.22;10.13;;;;;;;28.44;56.49;100922.88;1713789;82;21030;-51
2022/08/18 05:21:10;;;;;;;11.25;10.13;;;;;;;28.44;56.63;100921.55;1713950;82;21542;-52
2022/08/18 05:23:36;;;;;;;11.57;10.32;;;;;;;28.47;56.64;100924.44;1713987;82;21502;-55
2022/08/18 05:26:04;;;;;;;10.70;9.70;;;;;;;28.51;56.51;100927.17;1713953;82;20995;-51
2022/08/18 05:28:33;;;;;;;11.38;10.25;;;;;;;28.53;56.34;100930.06;1713907;84;21077;-49
2022/08/18 05:31:19;;;;;;;11.05;9.95;;;;;;;28.53;56.28;100935.42;1713742;82;21026;-53
2022/08/18 05:33:46;;;;;;;11.05;9.93;;;;;;;28.54;56.27;100927.72;1714054;82;21041;-57
2022/08/18 05:36:50;;;;;;;11.18;10.28;;;;;;;28.57;56.11;100934.17;1717174;82;21013;-52
2022/08/18 05:39:24;;;;;;;11.75;10.43;;;;;;;28.57;56.07;100928.82;1698367;84;21050;-49
2022/08/18 05:42:16;;;;;;;11.40;10.30;;;;;;;28.63;56.10;100932.74;1665221;85;21034;-50
2022/08/18 05:44:46;;;;;;;11.12;10.13;;;;;;;28.67;56.12;100932.80;1666927;85;21018;-51
2022/08/18 05:47:28;;;;;;;11.07;10.07;;;;;;;28.74;56.07;100937.45;1593512;89;21079;-53
2022/08/18 05:49:57;;;;;;;10.82;9.85;;;;;;;28.82;55.88;100933.55;1593288;89;21108;-50
2022/08/18 05:52:48;;;;;;;10.50;9.50;;;;;;;28.90;55.46;100937.69;1605326;88;21056;-52
2022/08/18 05:58:30;;;;;;;10.88;9.88;;;;;;;29.01;54.79;100937.15;1534368;92;21074;-50
2022/08/18 06:01:01;;;;;;;10.65;9.70;;;;;;;29.00;54.40;100936.82;1535016;92;21054;-53
2022/08/18 06:03:48;;;;;;;11.70;10.50;;;;;;;28.97;54.34;100940.11;1525472;93;21060;-52
2022/08/18 06:06:21;;;;;;;11.15;10.13;;;;;;;28.94;54.32;100932.38;1489947;94;21118;-51
2022/08/18 06:09:06;;;;;;;10.40;9.50;;;;;;;28.91;54.46;100929.16;1505895;94;20999;-52
2022/08/18 06:11:33;;;;;;;11.55;10.55;;;;;;;28.89;54.49;100926.61;1493299;94;21608;-53
2022/08/18 06:14:00;;;;;;;11.25;10.15;;;;;;;28.90;54.71;100926.97;1495556;94;21086;-52
2022/08/18 06:16:47;;;;;;;11.03;10.03;;;;;;;28.94;54.67;100926.17;1487719;96;21297;-50
2022/08/18 06:19:42;;;;;;;10.53;9.63;;;;;;;29.00;54.64;100930.94;1482856;94;21177;-51
2022/08/18 06:22:35;;;;;;;10.93;10.03;;;;;;;29.09;54.48;100931.90;1473485;96;21141;-53
2022/08/18 06:25:28;;;;;;;10.93;9.98;;;;;;;29.16;54.35;100929.02;1419100;100;21166;-51
2022/08/18 06:28:06;;;;;;;11.30;10.30;;;;;;;29.20;54.28;100929.92;1407864;100;21182;-50
2022/08/18 06:30:50;;;;;;;11.45;10.25;;;;;;;29.24;54.08;100925.95;1391888;102;21132;-51
2022/08/18 06:33:40;;;;;;;10.63;9.70;;;;;;;29.29;54.15;100928.16;1376063;103;21688;-49
2022/08/18 06:36:18;;;;;;;11.18;10.08;;;;;;;29.33;54.03;100921.51;1375645;103;21163;-52
2022/08/18 06:39:29;;;;;;;10.95;9.90;;;;;;;29.37;53.66;100913.52;1377478;103;21123;-53
2022/08/18 06:41:55;;;;;;;10.80;9.90;;;;;;;29.39;53.80;100915.55;1391311;100;21076;-49
2022/08/18 06:44:36;;;;;;;11.00;10.00;;;;;;;29.43;53.86;100911.60;1429943;99;21215;-52
2022/08/18 06:47:14;;;;;;;10.05;9.18;;;;;;;29.47;53.69;100915.67;1441939;99;21095;-52
2022/08/18 06:49:50;;;;;;;10.18;9.35;;;;;;;29.51;53.87;100919.73;1446815;99;21115;-52
2022/08/18 06:52:29;;;;;;;15.88;10.25;;;;;;;29.55;53.61;100913.08;1438471;99;21151;-51
2022/08/18 06:54:59;;;;;;;10.55;9.65;;;;;;;29.60;53.48;100913.45;1447038;99;21095;-52
2022/08/18 06:57:34;;;;;;;11.22;10.10;;;;;;;29.63;53.42;100909.14;1446325;99;21572;-50
2022/08/18 07:00:17;;;;;;;12.28;9.95;;;;;;;29.66;53.21;100910.16;1491143;94;21097;-50
2022/08/18 07:03:00;;;;;;;10.70;9.60;;;;;;;29.69;53.21;100907.19;1473080;95;21178;-50
2022/08/18 07:05:31;;;;;;;11.33;10.23;;;;;;;29.71;53.32;100905.20;1494067;95;21174;-51
2022/08/18 07:08:16;;;;;;;11.48;10.50;;;;;;;29.74;53.05;100903.08;1498161;95;21107;-52
2022/08/18 07:10:48;;;;;;;11.88;10.88;;;;;;;29.78;52.82;100910.83;1498965;95;21656;-50
2022/08/18 07:13:24;;;;;;;11.85;10.82;;;;;;;29.82;52.74;100906.33;1491425;95;21095;-50
2022/08/18 07:15:54;;;;;;;12.28;11.28;;;;;;;29.85;52.78;100911.41;1531592;90;21115;-51
2022/08/18 07:18:24;;;;;;;13.25;11.85;;;;;;;29.91;52.65;100915.30;1563387;90;21076;-50
2022/08/18 07:21:00;;;;;;;11.80;10.70;;;;;;;29.93;52.41;100910.13;1567790;90;21077;-49
2022/08/18 07:23:38;;;;;;;14.07;12.30;;;;;;;29.97;52.24;100908.83;1576648;90;21487;-54
2022/08/18 07:26:12;;;;;;;12.65;11.55;;;;;;;30.02;51.93;100910.56;1549926;90;21550;-50
2022/08/18 07:28:47;;;;;;;12.40;11.15;;;;;;;30.11;51.94;100905.59;1569459;90;21073;-52
2022/08/18 07:31:48;;;;;;;12.65;11.55;;;;;;;30.19;51.90;100907.52;1628813;86;21443;-49
2022/08/18 07:34:24;;;;;;;;;;;;;;;30.30;51.96;100905.45;1655563;84;21097;-52
2022/08/18 07:37:01;;;;;;;12.45;11.15;;;;;;;30.41;51.48;100903.88;1665215;84;20156;-53
2022/08/18 07:39:38;;;;;;;13.10;11.85;;;;;;;30.49;51.33;100905.27;1618468;85;21047;-54
2022/08/18 07:42:16;;;;;;;13.48;12.28;;;;;;;30.56;51.03;100907.32;1659741;85;21002;-57
2022/08/18 07:44:53;;;;;;;13.25;12.05;;;;;;;30.59;51.01;100896.25;1665286;85;21570;-53
2022/08/18 07:47:48;;;;;;;14.40;13.25;;;;;;;30.62;51.09;100898.14;1651055;85;21002;-53
2022/08/18 07:50:16;;;;;;;13.65;12.55;;;;;;;30.68;51.00;100900.68;1648117;85;21555;-50
2022/08/18 07:53:06;;;;;;;12.73;11.63;;;;;;;30.71;50.79;100890.98;1660552;85;21010;-52
2022/08/18 07:55:34;;;;;;;14.13;12.75;;;;;;;30.73;50.78;100886.28;1654752;85;21022;-51
2022/08/18 07:58:27;;;;;;;12.88;11.78;;;;;;;30.74;50.45;100886.61;1621180;87;21051;-50
2022/08/18 08:01:03;;;;;;;13.62;12.33;;;;;;;30.74;50.65;100886.61;1654526;85;21082;-53
2022/08/18 08:04:03;;;;;;;13.68;12.43;;;;;;;30.74;50.84;100887.46;1566113;90;21073;-57
2022/08/18 08:06:47;;;;;;;13.53;12.23;;;;;;;30.74;50.73;100890.15;1377157;103;21167;-49
2022/08/18 08:09:44;;;;;;;14.00;12.53;;;;;;;30.77;50.98;100894.37;1378384;104;21167;-55
2022/08/18 08:12:25;;;;;;;14.10;12.80;;;;;;;30.78;50.92;100894.69;1404848;100;21108;-52
2022/08/18 08:15:06;;;;;;;12.93;11.88;;;;;;;30.81;50.87;100893.05;1400898;102;21212;-51
2022/08/18 08:17:41;;;;;;;13.38;12.23;;;;;;;30.84;50.75;100892.70;1384278;102;21172;-49
2022/08/18 08:20:28;;;;;;;14.18;12.88;;;;;;;30.86;50.42;100888.90;1342973;106;21160;-50
2022/08/18 08:23:16;;;;;;;13.93;12.43;;;;;;;30.90;50.46;100884.89;1338390;107;21229;-50
2022/08/18 08:25:57;;;;;;;13.28;12.07;;;;;;;30.97;50.42;100882.41;1272424;112;21172;-51
2022/08/18 08:28:45;;;;;;;13.58;12.37;;;;;;;31.03;50.01;100881.76;1237210;114;21744;-53
2022/08/18 08:31:26;;;;;;;13.62;12.53;;;;;;;31.09;50.09;100877.92;1202037;119;21249;-52
2022/08/18 08:34:04;;;;;;;11.28;10.38;;;;;;;31.15;49.78;100884.00;1182837;119;21288;-53
2022/08/18 08:36:35;;;;;;;11.93;9.95;;;;;;;31.20;49.21;100878.14;1183386;120;21816;-49
2022/08/18 08:39:07;;;;;;;12.18;11.08;;;;;;;31.28;48.75;100882.20;1174291;118;21261;-49
2022/08/18 08:41:49;;;;;;;10.30;9.50;;;;;;;31.36;48.80;100880.02;1199127;118;21192;-50
2022/08/18 08:44:37;;;;;;;11.95;10.75;;;;;;;31.44;48.38;100879.58;1245118;114;21256;-52
2022/08/18 08:47:14;;;;;;;12.40;11.28;;;;;;;31.53;48.46;100876.41;1246283;114;21697;-51
2022/08/18 08:49:56;;;;;;;15.28;12.88;;;;;;;31.64;48.90;100876.92;1244151;114;21220;-53
2022/08/18 08:52:50;;;;;;;13.48;11.43;;;;;;;31.74;49.02;100874.92;1227603;116;21809;-50
2022/08/18 08:55:30;;;;;;;12.37;11.25;;;;;;;31.85;49.00;100866.53;1227155;116;21753;-51
2022/08/18 08:58:32;;;;;;;14.00;11.50;;;;;;;31.95;49.02;100864.55;1235095;115;21262;-54
2022/08/18 09:00:59;;;;;;;11.12;10.13;;;;;;;32.05;48.56;100867.91;1229492;115;21242;-48
2022/08/18 09:03:49;;;;;;;11.55;10.60;;;;;;;32.19;48.24;100869.59;1260761;111;21153;-49
2022/08/18 09:06:33;;;;;;;12.43;11.30;;;;;;;32.30;48.18;100878.65;1309964;107;21749;-49
2022/08/18 09:09:14;;;;;;;11.50;10.50;;;;;;;32.42;48.04;100874.63;1371670;103;21114;-49
2022/08/18 09:11:51;;;;;;;14.43;10.30;;;;;;;32.54;47.45;100870.59;1401082;99;21127;-52
2022/08/18 09:14:58;;;;;;;12.28;11.18;;;;;;;32.65;47.42;100862.12;1346555;105;21162;-49
2022/08/18 09:18:02;;;;;;;11.57;10.58;;;;;;;32.76;46.96;100863.11;1388549;101;21181;-52
2022/08/18 09:20:39;;;;;;;11.43;10.53;;;;;;;32.87;46.42;100863.56;1399239;102;21171;-48
2022/08/18 09:23:12;;;;;;;11.38;10.48;;;;;;;32.93;45.76;100867.94;1401905;100;21680;-48
2022/08/18 09:25:44;;;;;;;12.35;11.22;;;;;;;32.93;45.52;100874.17;1429788;98;21655;-48
2022/08/18 09:28:31;;;;;;;13.15;11.85;;;;;;;32.91;45.77;100880.75;1431471;98;21188;-57
2022/08/18 09:31:09;;;;;;;11.80;10.80;;;;;;;32.86;45.83;100881.27;1397041;100;21138;-52
2022/08/18 09:33:49;;;;;;;11.43;10.45;;;;;;;32.78;45.35;100878.09;1428928;98;21169;-53
2022/08/18 09:36:23;;;;;;;12.65;11.45;;;;;;;32.71;45.66;100873.55;1507795;94;21069;-52
2022/08/18 09:42:03;;;;;;;12.43;11.12;;;;;;;32.58;45.97;100882.70;1499125;94;21577;-52
2022/08/18 09:44:51;;;;;;;13.65;11.05;;;;;;;32.46;46.24;100898.36;1457439;95;21127;-55
2022/08/18 09:47:26;;;;;;;10.93;10.03;;;;;;;32.38;46.41;100900.19;1463383;95;21096;-51
2022/08/18 09:50:07;;;;;;;11.28;10.28;;;;;;;32.28;46.43;100892.30;1466458;96;21142;-50
2022/08/18 09:52:38;;;;;;;;;;;;;;;32.19;46.49;100895.17;1542011;91;21145;-49
2022/08/18 09:55:09;;;;;;;11.48;10.58;;;;;;;32.07;46.54;100891.46;1544526;91;20233;-51
2022/08/18 09:57:36;;;;;;;;;;;;;;;31.98;47.16;100887.07;1550213;91;21078;-54
2022/08/18 10:00:12;;;;;;;21.70;11.10;;;;;;;31.88;48.61;100878.29;1548070;91;20455;-53
2022/08/18 10:02:44;;;;;;;12.15;10.95;;;;;;;31.80;48.94;100874.25;1553196;91;21155;-50
2022/08/18 10:05:20;;;;;;;12.53;11.53;;;;;;;31.69;49.28;100871.05;1557776;90;21398;-50
2022/08/18 10:08:06;;;;;;;12.60;11.25;;;;;;;31.60;49.70;100872.03;1558305;90;21208;-53
2022/08/18 10:10:54;;;;;;;12.58;11.48;;;;;;;31.50;49.85;100884.30;1577489;90;21150;-50
2022/08/18 10:13:41;;;;;;;13.00;11.75;;;;;;;31.38;49.89;100889.62;1574169;89;21030;-52
2022/08/18 10:16:42;;;;;;;12.05;10.95;;;;;;;31.32;49.88;100891.62;1547030;90;21019;-52
2022/08/18 10:19:30;;;;;;;11.95;10.88;;;;;;;31.26;50.11;100888.23;1572488;90;21074;-50
2022/08/18 10:22:00;;;;;;;11.22;10.23;;;;;;;31.20;49.93;100886.20;1547518;92;21097;-53
2022/08/18 10:24:42;;;;;;;11.57;10.48;;;;;;;31.15;49.60;100879.11;1543951;92;21107;-53
2022/08/18 10:27:36;;;;;;;10.88;9.93;;;;;;;31.11;49.18;100880.44;1533178;91;21520;-51
2022/08/18 10:30:04;;;;;;;11.33;10.43;;;;;;;31.07;49.13;100879.09;1489621;94;21565;-52
2022/08/18 10:32:41;;;;;;;10.80;9.90;;;;;;;31.02;49.27;100880.05;1496253;95;21101;-54
2022/08/18 10:35:40;;;;;;;12.55;9.90;;;;;;;30.99;49.41;100883.08;1471120;96;21733;-51
2022/08/18 10:38:24;;;;;;;11.03;10.03;;;;;;;30.96;49.51;100894.98;1468466;96;21115;-53
2022/08/18 10:40:59;;;;;;;10.98;9.98;;;;;;;30.94;49.17;100890.77;1482039;95;21038;-50
2022/08/18 10:43:43;;;;;;;11.78;10.32;;;;;;;30.91;49.38;100890.62;1473739;96;21021;-56
2022/08/18 10:46:30;;;;;;;16.02;11.90;;;;;;;30.91;49.28;100889.77;1434585;97;21202;-49
2022/08/18 10:49:12;;;;;;;12.30;10.95;;;;;;;30.90;49.26;100885.38;1434067;99;21166;-49
2022/08/18 10:52:31;;;;;;;11.55;10.45;;;;;;;30.90;49.22;100885.38;1435054;99;21627;-49
2022/08/18 10:55:16;;;;;;;25.82;16.27;;;;;;;30.88;49.58;100890.07;1462243;95;21112;-52
2022/08/18 10:58:21;;;;;;;13.72;10.40;;;;;;;30.88;50.57;100899.48;1471416;96;21121;-51
2022/08/18 11:01:24;;;;;;;15.15;10.23;;;;;;;30.87;50.74;100903.19;1531958;92;21150;-51
2022/08/18 11:04:07;;;;;;;20.08;11.70;;;;;;;30.86;50.66;100913.08;1533484;92;21146;-55
2022/08/18 11:06:40;;;;;;;12.03;9.53;;;;;;;30.85;50.45;100916.75;1562089;89;21049;-51
2022/08/18 11:09:08;;;;;;;13.32;8.53;;;;;;;30.87;50.24;100921.99;1563795;91;21169;-50
2022/08/18 11:11:41;;;;;;;10.38;7.58;;;;;;;30.87;49.72;100917.96;1573997;90;21515;-52
2022/08/18 11:14:36;;;;;;;10.25;8.65;;;;;;;30.86;48.93;100909.55;1515195;93;21071;-52
2022/08/18 11:23:27;;;;;;;10.65;9.55;;;;;;;30.81;50.72;100915.36;1795069;78;23003;-49
2022/08/18 11:25:53;;;;;;;11.20;10.10;;;;;;;30.72;51.25;100910.11;1780291;80;21025;-56
2022/08/18 11:28:22;;;;;;;11.50;10.45;;;;;;;30.67;51.42;100908.38;1771854;80;21033;-51
2022/08/18 11:30:51;;;;;;;10.72;9.73;;;;;;;30.64;51.72;100908.72;1783129;80;21030;-50
2022/08/18 11:33:18;;;;;;;9.68;8.80;;;;;;;30.62;51.71;100905.34;1783516;80;20990;-51
2022/08/18 11:35:50;;;;;;;10.82;9.88;;;;;;;30.57;51.45;100903.62;1784859;80;21025;-49
2022/08/18 11:38:18;;;;;;;9.53;8.65;;;;;;;30.53;51.47;100902.61;1669144;85;21634;-50
2022/08/18 11:40:47;;;;;;;11.05;9.95;;;;;;;30.49;51.41;100899.90;1665700;85;21554;-51
2022/08/18 11:43:34;;;;;;;11.12;9.63;;;;;;;30.47;51.02;100891.16;1662065;85;21563;-52
2022/08/18 11:46:03;;;;;;;8.00;7.28;;;;;;;30.45;50.82;100883.77;1661003;85;21055;-51
2022/08/18 11:48:36;;;;;;;10.30;7.25;;;;;;;30.44;50.33;100874.00;1660762;85;21027;-48
2022/08/18 11:51:26;;;;;;;9.00;8.05;;;;;;;30.47;49.99;100887.63;1670648;85;21061;-50
2022/08/18 11:54:03;;;;;;;8.18;7.40;;;;;;;30.47;49.85;100877.73;1671906;85;21070;-53
2022/08/18 11:56:33;;;;;;;7.60;6.90;;;;;;;30.49;49.44;100877.08;1672134;85;21510;-50
2022/08/18 11:59:07;;;;;;;6.47;5.92;;;;;;;30.49;49.60;100881.59;1668596;85;21053;-56
2022/08/18 12:01:38;;;;;;;5.35;4.80;;;;;;;30.48;49.15;100874.52;1614232;89;21146;-52
2022/08/18 12:04:30;;;;;;;4.35;4.05;;;;;;;30.48;47.45;100871.34;1611945;89;21553;-52
2022/08/18 12:07:05;;;;;;;6.50;5.10;;;;;;;30.47;46.82;100873.70;1595184;88;21014;-53
2022/08/18 12:09:51;;;;;;;5.20;4.70;;;;;;;30.48;46.64;100868.66;1573176;90;21115;-53
2022/08/18 12:12:29;;;;;;;5.20;4.70;;;;;;;30.51;46.92;100872.38;1569182;90;21056;-52
2022/08/18 12:15:15;;;;;;;4.85;4.45;;;;;;;30.54;47.04;100877.95;1562484;90;21240;-51